sensor_id;sensor_type;location;lat;lon;timestamp;P1;durP1;ratioP1;P2;durP2;ratioP2
25988;SDS011;13778;48.236;9.894;2024-01-30T00:02:37;24.30;;;13.02;;
25988;SDS011;13778;48.236;9.894;2024-01-30T00:05:27;23.10;;;14.75;;
25988;SDS011;13778;48.236;9.894;2024-01-30T00:08:19;21.35;;;13.75;;
25988;SDS011;13778;48.236;9.894;2024-01-30T00:11:09;26.15;;;14.35;;
25988;SDS011;13778;48.236;9.894;2024-01-30T00:14:00;22.92;;;14.55;;
25988;SDS011;13778;48.236;9.894;2024-01-30T00:16:50;25.08;;;14.93;;
25988;SDS011;13778;48.236;9.894;2024-01-30T00:19:41;22.70;;;14.07;;
25988;SDS011;13778;48.236;9.894;2024-01-30T00:22:31;23.23;;;14.32;;
25988;SDS011;13778;48.236;9.894;2024-01-30T00:25:24;23.30;;;14.02;;
25988;SDS011;13778;48.236;9.894;2024-01-30T00:28:14;26.80;;;14.98;;
25988;SDS011;13778;48.236;9.894;2024-01-30T00:31:05;21.83;;;14.27;;
25988;SDS011;13778;48.236;9.894;2024-01-30T00:33:55;22.85;;;14.07;;
25988;SDS011;13778;48.236;9.894;2024-01-30T00:36:46;22.25;;;13.50;;
25988;SDS011;13778;48.236;9.894;2024-01-30T00:39:36;22.52;;;13.40;;
25988;SDS011;13778;48.236;9.894;2024-01-30T00:42:28;21.75;;;13.57;;
25988;SDS011;13778;48.236;9.894;2024-01-30T00:45:18;24.40;;;15.43;;
25988;SDS011;13778;48.236;9.894;2024-01-30T00:48:09;23.92;;;14.98;;
25988;SDS011;13778;48.236;9.894;2024-01-30T00:50:59;22.73;;;14.00;;
25988;SDS011;13778;48.236;9.894;2024-01-30T00:53:50;25.88;;;14.32;;
25988;SDS011;13778;48.236;9.894;2024-01-30T00:56:40;23.77;;;14.50;;
25988;SDS011;13778;48.236;9.894;2024-01-30T00:59:32;25.48;;;14.10;;
25988;SDS011;13778;48.236;9.894;2024-01-30T01:02:23;24.20;;;14.40;;
25988;SDS011;13778;48.236;9.894;2024-01-30T01:05:13;23.85;;;14.48;;
25988;SDS011;13778;48.236;9.894;2024-01-30T01:08:04;26.02;;;14.57;;
25988;SDS011;13778;48.236;9.894;2024-01-30T01:10:54;23.65;;;14.55;;
25988;SDS011;13778;48.236;9.894;2024-01-30T01:13:45;22.42;;;14.38;;
25988;SDS011;13778;48.236;9.894;2024-01-30T01:16:37;24.52;;;14.10;;
25988;SDS011;13778;48.236;9.894;2024-01-30T01:19:27;22.90;;;14.60;;
25988;SDS011;13778;48.236;9.894;2024-01-30T01:22:18;24.42;;;14.15;;
25988;SDS011;13778;48.236;9.894;2024-01-30T01:25:08;27.25;;;16.05;;
25988;SDS011;13778;48.236;9.894;2024-01-30T01:27:59;21.77;;;13.05;;
25988;SDS011;13778;48.236;9.894;2024-01-30T01:30:50;26.38;;;14.98;;
25988;SDS011;13778;48.236;9.894;2024-01-30T01:33:42;20.13;;;13.00;;
25988;SDS011;13778;48.236;9.894;2024-01-30T01:36:32;20.67;;;12.32;;
25988;SDS011;13778;48.236;9.894;2024-01-30T01:39:23;23.42;;;14.48;;
25988;SDS011;13778;48.236;9.894;2024-01-30T01:42:13;21.38;;;13.32;;
25988;SDS011;13778;48.236;9.894;2024-01-30T01:45:04;21.70;;;13.52;;
25988;SDS011;13778;48.236;9.894;2024-01-30T01:47:54;21.33;;;13.27;;
25988;SDS011;13778;48.236;9.894;2024-01-30T01:50:46;20.58;;;13.15;;
25988;SDS011;13778;48.236;9.894;2024-01-30T01:53:40;18.85;;;12.63;;
25988;SDS011;13778;48.236;9.894;2024-01-30T01:56:31;22.20;;;12.77;;
25988;SDS011;13778;48.236;9.894;2024-01-30T01:59:23;20.15;;;13.02;;
25988;SDS011;13778;48.236;9.894;2024-01-30T02:02:14;18.48;;;12.73;;
25988;SDS011;13778;48.236;9.894;2024-01-30T02:05:05;20.02;;;13.27;;
25988;SDS011;13778;48.236;9.894;2024-01-30T02:07:57;19.58;;;13.00;;
25988;SDS011;13778;48.236;9.894;2024-01-30T02:13:37;20.90;;;13.30;;
25988;SDS011;13778;48.236;9.894;2024-01-30T02:16:28;21.23;;;14.00;;
25988;SDS011;13778;48.236;9.894;2024-01-30T02:19:19;20.95;;;13.80;;
25988;SDS011;13778;48.236;9.894;2024-01-30T02:22:11;27.83;;;14.60;;
25988;SDS011;13778;48.236;9.894;2024-01-30T02:25:01;23.70;;;14.10;;
25988;SDS011;13778;48.236;9.894;2024-01-30T02:27:52;24.35;;;13.30;;
25988;SDS011;13778;48.236;9.894;2024-01-30T02:30:42;23.77;;;13.10;;
25988;SDS011;13778;48.236;9.894;2024-01-30T02:33:32;20.65;;;13.27;;
25988;SDS011;13778;48.236;9.894;2024-01-30T02:36:23;20.23;;;12.90;;
25988;SDS011;13778;48.236;9.894;2024-01-30T02:39:15;21.17;;;12.88;;
25988;SDS011;13778;48.236;9.894;2024-01-30T02:42:05;18.85;;;12.32;;
25988;SDS011;13778;48.236;9.894;2024-01-30T02:44:56;21.05;;;11.25;;
25988;SDS011;13778;48.236;9.894;2024-01-30T02:47:46;22.27;;;12.32;;
25988;SDS011;13778;48.236;9.894;2024-01-30T02:50:37;18.60;;;12.40;;
25988;SDS011;13778;48.236;9.894;2024-01-30T02:53:27;16.42;;;11.75;;
25988;SDS011;13778;48.236;9.894;2024-01-30T02:56:19;20.42;;;12.10;;
25988;SDS011;13778;48.236;9.894;2024-01-30T02:59:10;18.55;;;11.98;;
25988;SDS011;13778;48.236;9.894;2024-01-30T03:02:00;18.27;;;11.90;;
25988;SDS011;13778;48.236;9.894;2024-01-30T03:04:50;18.40;;;11.48;;
25988;SDS011;13778;48.236;9.894;2024-01-30T03:07:41;20.92;;;12.30;;
25988;SDS011;13778;48.236;9.894;2024-01-30T03:10:31;15.18;;;10.75;;
25988;SDS011;13778;48.236;9.894;2024-01-30T03:13:23;18.33;;;11.95;;
25988;SDS011;13778;48.236;9.894;2024-01-30T03:16:14;17.40;;;11.82;;
25988;SDS011;13778;48.236;9.894;2024-01-30T03:19:05;19.98;;;11.55;;
25988;SDS011;13778;48.236;9.894;2024-01-30T03:21:57;18.98;;;12.15;;
25988;SDS011;13778;48.236;9.894;2024-01-30T03:24:47;19.48;;;12.35;;
25988;SDS011;13778;48.236;9.894;2024-01-30T03:27:38;17.63;;;11.88;;
25988;SDS011;13778;48.236;9.894;2024-01-30T03:30:30;21.48;;;13.43;;
25988;SDS011;13778;48.236;9.894;2024-01-30T03:33:21;20.42;;;12.35;;
25988;SDS011;13778;48.236;9.894;2024-01-30T03:36:11;22.15;;;12.23;;
25988;SDS011;13778;48.236;9.894;2024-01-30T03:39:02;19.58;;;12.52;;
25988;SDS011;13778;48.236;9.894;2024-01-30T03:41:53;17.23;;;11.23;;
25988;SDS011;13778;48.236;9.894;2024-01-30T03:44:43;19.73;;;13.00;;
25988;SDS011;13778;48.236;9.894;2024-01-30T03:47:35;18.75;;;12.05;;
25988;SDS011;13778;48.236;9.894;2024-01-30T03:50:25;19.90;;;13.43;;
25988;SDS011;13778;48.236;9.894;2024-01-30T03:53:17;19.50;;;12.80;;
25988;SDS011;13778;48.236;9.894;2024-01-30T03:56:07;27.50;;;16.10;;
25988;SDS011;13778;48.236;9.894;2024-01-30T03:58:58;21.40;;;13.93;;
25988;SDS011;13778;48.236;9.894;2024-01-30T04:01:49;20.70;;;13.20;;
25988;SDS011;13778;48.236;9.894;2024-01-30T04:04:41;20.08;;;12.48;;
25988;SDS011;13778;48.236;9.894;2024-01-30T04:10:22;20.52;;;12.43;;
25988;SDS011;13778;48.236;9.894;2024-01-30T04:13:13;21.83;;;14.15;;
25988;SDS011;13778;48.236;9.894;2024-01-30T04:16:04;20.58;;;13.18;;
25988;SDS011;13778;48.236;9.894;2024-01-30T04:18:55;21.83;;;13.65;;
25988;SDS011;13778;48.236;9.894;2024-01-30T04:21:47;24.92;;;14.23;;
25988;SDS011;13778;48.236;9.894;2024-01-30T04:27:28;22.27;;;14.63;;
25988;SDS011;13778;48.236;9.894;2024-01-30T04:30:19;19.50;;;12.80;;
25988;SDS011;13778;48.236;9.894;2024-01-30T04:33:10;21.77;;;14.07;;
25988;SDS011;13778;48.236;9.894;2024-01-30T04:36:00;19.42;;;12.00;;
25988;SDS011;13778;48.236;9.894;2024-01-30T04:38:52;23.02;;;14.23;;
25988;SDS011;13778;48.236;9.894;2024-01-30T04:41:42;21.65;;;12.40;;
25988;SDS011;13778;48.236;9.894;2024-01-30T04:44:33;20.35;;;12.30;;
25988;SDS011;13778;48.236;9.894;2024-01-30T04:47:23;21.10;;;13.05;;
25988;SDS011;13778;48.236;9.894;2024-01-30T04:50:14;19.85;;;13.02;;
25988;SDS011;13778;48.236;9.894;2024-01-30T04:53:04;21.25;;;13.65;;
25988;SDS011;13778;48.236;9.894;2024-01-30T04:55:56;19.35;;;12.70;;
25988;SDS011;13778;48.236;9.894;2024-01-30T04:58:47;19.15;;;12.15;;
25988;SDS011;13778;48.236;9.894;2024-01-30T05:01:37;19.65;;;11.68;;
25988;SDS011;13778;48.236;9.894;2024-01-30T05:04:28;16.92;;;11.43;;
25988;SDS011;13778;48.236;9.894;2024-01-30T05:07:18;16.48;;;10.70;;
25988;SDS011;13778;48.236;9.894;2024-01-30T05:10:09;16.08;;;10.57;;
25988;SDS011;13778;48.236;9.894;2024-01-30T05:13:01;21.58;;;11.65;;
25988;SDS011;13778;48.236;9.894;2024-01-30T05:18:41;19.45;;;11.77;;
25988;SDS011;13778;48.236;9.894;2024-01-30T05:21:31;17.75;;;11.70;;
25988;SDS011;13778;48.236;9.894;2024-01-30T05:24:22;17.73;;;10.98;;
25988;SDS011;13778;48.236;9.894;2024-01-30T05:27:13;21.73;;;13.35;;
25988;SDS011;13778;48.236;9.894;2024-01-30T05:30:05;19.67;;;13.13;;
25988;SDS011;13778;48.236;9.894;2024-01-30T05:32:56;24.02;;;13.52;;
25988;SDS011;13778;48.236;9.894;2024-01-30T05:35:46;21.88;;;14.30;;
25988;SDS011;13778;48.236;9.894;2024-01-30T05:38:37;33.53;;;15.77;;
25988;SDS011;13778;48.236;9.894;2024-01-30T05:41:28;22.90;;;14.65;;
25988;SDS011;13778;48.236;9.894;2024-01-30T05:44:18;25.83;;;16.58;;
25988;SDS011;13778;48.236;9.894;2024-01-30T05:47:10;22.67;;;14.20;;
25988;SDS011;13778;48.236;9.894;2024-01-30T05:50:01;19.92;;;13.35;;
25988;SDS011;13778;48.236;9.894;2024-01-30T05:52:52;19.88;;;12.45;;
25988;SDS011;13778;48.236;9.894;2024-01-30T05:55:43;20.00;;;12.30;;
25988;SDS011;13778;48.236;9.894;2024-01-30T05:58:33;17.17;;;11.70;;
25988;SDS011;13778;48.236;9.894;2024-01-30T06:01:24;20.05;;;12.25;;
25988;SDS011;13778;48.236;9.894;2024-01-30T06:04:15;17.60;;;12.35;;
25988;SDS011;13778;48.236;9.894;2024-01-30T06:09:56;24.20;;;12.60;;
25988;SDS011;13778;48.236;9.894;2024-01-30T06:12:49;17.63;;;11.98;;
25988;SDS011;13778;48.236;9.894;2024-01-30T06:15:40;18.30;;;12.50;;
25988;SDS011;13778;48.236;9.894;2024-01-30T06:18:30;17.63;;;10.98;;
25988;SDS011;13778;48.236;9.894;2024-01-30T06:21:23;20.35;;;11.98;;
25988;SDS011;13778;48.236;9.894;2024-01-30T06:24:13;18.52;;;12.05;;
25988;SDS011;13778;48.236;9.894;2024-01-30T06:27:04;21.80;;;13.38;;
25988;SDS011;13778;48.236;9.894;2024-01-30T06:29:54;19.55;;;12.30;;
25988;SDS011;13778;48.236;9.894;2024-01-30T06:32:45;20.00;;;13.07;;
25988;SDS011;13778;48.236;9.894;2024-01-30T06:35:35;22.00;;;13.15;;
25988;SDS011;13778;48.236;9.894;2024-01-30T06:38:30;21.38;;;13.15;;
25988;SDS011;13778;48.236;9.894;2024-01-30T06:41:20;16.60;;;12.70;;
25988;SDS011;13778;48.236;9.894;2024-01-30T06:44:11;22.25;;;13.48;;
25988;SDS011;13778;48.236;9.894;2024-01-30T06:47:01;23.75;;;13.10;;
25988;SDS011;13778;48.236;9.894;2024-01-30T06:49:52;20.75;;;13.35;;
25988;SDS011;13778;48.236;9.894;2024-01-30T06:52:42;21.27;;;14.00;;
25988;SDS011;13778;48.236;9.894;2024-01-30T06:55:34;20.05;;;12.50;;
25988;SDS011;13778;48.236;9.894;2024-01-30T07:01:15;22.10;;;12.00;;
25988;SDS011;13778;48.236;9.894;2024-01-30T07:04:05;18.92;;;11.43;;
25988;SDS011;13778;48.236;9.894;2024-01-30T07:06:56;18.00;;;11.63;;
25988;SDS011;13778;48.236;9.894;2024-01-30T07:09:46;20.23;;;12.40;;
25988;SDS011;13778;48.236;9.894;2024-01-30T07:12:40;21.08;;;12.57;;
25988;SDS011;13778;48.236;9.894;2024-01-30T07:15:30;23.85;;;14.05;;
25988;SDS011;13778;48.236;9.894;2024-01-30T07:18:21;22.38;;;14.32;;
25988;SDS011;13778;48.236;9.894;2024-01-30T07:21:11;24.27;;;15.23;;
25988;SDS011;13778;48.236;9.894;2024-01-30T07:24:02;26.17;;;15.00;;
25988;SDS011;13778;48.236;9.894;2024-01-30T07:26:52;27.70;;;16.40;;
25988;SDS011;13778;48.236;9.894;2024-01-30T07:29:44;25.70;;;14.95;;
25988;SDS011;13778;48.236;9.894;2024-01-30T07:32:35;22.73;;;13.98;;
25988;SDS011;13778;48.236;9.894;2024-01-30T07:35:25;19.33;;;12.27;;
25988;SDS011;13778;48.236;9.894;2024-01-30T07:38:15;20.60;;;13.90;;
25988;SDS011;13778;48.236;9.894;2024-01-30T07:41:06;22.20;;;12.93;;
25988;SDS011;13778;48.236;9.894;2024-01-30T07:43:57;22.17;;;14.38;;
25988;SDS011;13778;48.236;9.894;2024-01-30T07:46:49;23.60;;;13.23;;
25988;SDS011;13778;48.236;9.894;2024-01-30T07:52:29;26.38;;;14.23;;
25988;SDS011;13778;48.236;9.894;2024-01-30T07:55:20;21.67;;;13.68;;
25988;SDS011;13778;48.236;9.894;2024-01-30T07:58:12;26.83;;;14.23;;
25988;SDS011;13778;48.236;9.894;2024-01-30T08:01:02;27.40;;;15.05;;
25988;SDS011;13778;48.236;9.894;2024-01-30T08:03:54;25.80;;;15.63;;
25988;SDS011;13778;48.236;9.894;2024-01-30T08:09:35;27.10;;;15.07;;
25988;SDS011;13778;48.236;9.894;2024-01-30T08:12:25;23.75;;;15.90;;
25988;SDS011;13778;48.236;9.894;2024-01-30T08:15:16;23.35;;;13.38;;
25988;SDS011;13778;48.236;9.894;2024-01-30T08:18:06;21.92;;;14.15;;
25988;SDS011;13778;48.236;9.894;2024-01-30T08:20:58;22.55;;;13.75;;
25988;SDS011;13778;48.236;9.894;2024-01-30T08:26:38;20.45;;;13.57;;
25988;SDS011;13778;48.236;9.894;2024-01-30T08:29:29;21.85;;;13.57;;
25988;SDS011;13778;48.236;9.894;2024-01-30T08:32:20;22.33;;;13.55;;
25988;SDS011;13778;48.236;9.894;2024-01-30T08:35:10;22.45;;;13.80;;
25988;SDS011;13778;48.236;9.894;2024-01-30T08:38:04;19.20;;;12.57;;
25988;SDS011;13778;48.236;9.894;2024-01-30T08:40:55;22.38;;;14.35;;
25988;SDS011;13778;48.236;9.894;2024-01-30T08:43:45;21.88;;;14.52;;
25988;SDS011;13778;48.236;9.894;2024-01-30T08:46:36;19.95;;;12.98;;
25988;SDS011;13778;48.236;9.894;2024-01-30T08:49:27;18.90;;;12.47;;
25988;SDS011;13778;48.236;9.894;2024-01-30T08:52:18;20.02;;;13.23;;
25988;SDS011;13778;48.236;9.894;2024-01-30T08:55:10;18.52;;;11.35;;
25988;SDS011;13778;48.236;9.894;2024-01-30T08:58:01;23.92;;;12.57;;
25988;SDS011;13778;48.236;9.894;2024-01-30T09:00:54;15.25;;;10.85;;
25988;SDS011;13778;48.236;9.894;2024-01-30T09:03:44;15.75;;;10.90;;
25988;SDS011;13778;48.236;9.894;2024-01-30T09:06:36;17.13;;;11.25;;
25988;SDS011;13778;48.236;9.894;2024-01-30T09:09:28;17.75;;;11.52;;
25988;SDS011;13778;48.236;9.894;2024-01-30T09:12:20;15.88;;;10.48;;
25988;SDS011;13778;48.236;9.894;2024-01-30T09:18:00;15.05;;;9.30;;
25988;SDS011;13778;48.236;9.894;2024-01-30T09:20:51;16.30;;;9.88;;
25988;SDS011;13778;48.236;9.894;2024-01-30T09:23:41;17.63;;;11.25;;
25988;SDS011;13778;48.236;9.894;2024-01-30T09:26:32;19.63;;;11.25;;
25988;SDS011;13778;48.236;9.894;2024-01-30T09:29:24;18.13;;;12.23;;
25988;SDS011;13778;48.236;9.894;2024-01-30T09:35:04;15.30;;;10.02;;
25988;SDS011;13778;48.236;9.894;2024-01-30T09:37:55;18.92;;;10.38;;
25988;SDS011;13778;48.236;9.894;2024-01-30T09:40:46;14.90;;;10.38;;
25988;SDS011;13778;48.236;9.894;2024-01-30T09:43:39;15.63;;;10.95;;
25988;SDS011;13778;48.236;9.894;2024-01-30T09:46:31;19.35;;;10.65;;
25988;SDS011;13778;48.236;9.894;2024-01-30T09:49:22;16.45;;;10.93;;
25988;SDS011;13778;48.236;9.894;2024-01-30T09:52:13;37.75;;;22.92;;
25988;SDS011;13778;48.236;9.894;2024-01-30T09:55:05;24.05;;;16.27;;
25988;SDS011;13778;48.236;9.894;2024-01-30T09:57:55;18.75;;;12.60;;
25988;SDS011;13778;48.236;9.894;2024-01-30T10:00:46;17.08;;;12.27;;
25988;SDS011;13778;48.236;9.894;2024-01-30T10:03:38;18.50;;;13.10;;
25988;SDS011;13778;48.236;9.894;2024-01-30T10:09:18;18.60;;;13.02;;
25988;SDS011;13778;48.236;9.894;2024-01-30T10:12:09;23.52;;;12.85;;
25988;SDS011;13778;48.236;9.894;2024-01-30T10:14:59;18.63;;;13.35;;
25988;SDS011;13778;48.236;9.894;2024-01-30T10:17:50;17.27;;;12.40;;
25988;SDS011;13778;48.236;9.894;2024-01-30T10:20:42;18.90;;;11.57;;
25988;SDS011;13778;48.236;9.894;2024-01-30T10:23:32;18.52;;;12.80;;
25988;SDS011;13778;48.236;9.894;2024-01-30T10:26:23;19.40;;;11.73;;
25988;SDS011;13778;48.236;9.894;2024-01-30T10:29:13;18.00;;;10.70;;
25988;SDS011;13778;48.236;9.894;2024-01-30T10:32:04;14.30;;;10.75;;
25988;SDS011;13778;48.236;9.894;2024-01-30T10:34:56;17.67;;;11.15;;
25988;SDS011;13778;48.236;9.894;2024-01-30T10:37:48;17.52;;;10.32;;
25988;SDS011;13778;48.236;9.894;2024-01-30T10:40:38;15.57;;;10.57;;
25988;SDS011;13778;48.236;9.894;2024-01-30T10:43:30;18.55;;;10.82;;
25988;SDS011;13778;48.236;9.894;2024-01-30T10:46:21;16.65;;;11.57;;
25988;SDS011;13778;48.236;9.894;2024-01-30T10:49:15;13.30;;;9.45;;
25988;SDS011;13778;48.236;9.894;2024-01-30T10:52:06;16.92;;;10.15;;
25988;SDS011;13778;48.236;9.894;2024-01-30T10:54:59;18.08;;;10.30;;
25988;SDS011;13778;48.236;9.894;2024-01-30T10:57:50;15.63;;;10.00;;
25988;SDS011;13778;48.236;9.894;2024-01-30T11:00:41;13.02;;;9.50;;
25988;SDS011;13778;48.236;9.894;2024-01-30T11:03:32;15.53;;;9.70;;
25988;SDS011;13778;48.236;9.894;2024-01-30T11:06:24;14.48;;;9.80;;
25988;SDS011;13778;48.236;9.894;2024-01-30T11:09:16;17.33;;;11.33;;
25988;SDS011;13778;48.236;9.894;2024-01-30T11:12:12;14.88;;;9.45;;
25988;SDS011;13778;48.236;9.894;2024-01-30T11:15:03;19.55;;;11.27;;
25988;SDS011;13778;48.236;9.894;2024-01-30T11:17:54;15.73;;;10.23;;
25988;SDS011;13778;48.236;9.894;2024-01-30T11:20:46;17.23;;;11.25;;
25988;SDS011;13778;48.236;9.894;2024-01-30T11:23:38;17.55;;;10.57;;
25988;SDS011;13778;48.236;9.894;2024-01-30T11:26:28;15.27;;;10.45;;
25988;SDS011;13778;48.236;9.894;2024-01-30T11:29:20;15.95;;;10.00;;
25988;SDS011;13778;48.236;9.894;2024-01-30T11:32:16;16.60;;;11.30;;
25988;SDS011;13778;48.236;9.894;2024-01-30T11:35:12;17.33;;;10.93;;
25988;SDS011;13778;48.236;9.894;2024-01-30T11:38:03;14.82;;;10.35;;
25988;SDS011;13778;48.236;9.894;2024-01-30T11:40:54;16.60;;;11.27;;
25988;SDS011;13778;48.236;9.894;2024-01-30T11:43:51;15.05;;;10.82;;
25988;SDS011;13778;48.236;9.894;2024-01-30T11:46:42;21.15;;;12.05;;
25988;SDS011;13778;48.236;9.894;2024-01-30T11:49:33;16.83;;;11.23;;
25988;SDS011;13778;48.236;9.894;2024-01-30T11:52:23;18.77;;;12.35;;
25988;SDS011;13778;48.236;9.894;2024-01-30T11:55:14;18.95;;;11.45;;
25988;SDS011;13778;48.236;9.894;2024-01-30T11:58:04;16.52;;;11.05;;
25988;SDS011;13778;48.236;9.894;2024-01-30T12:00:55;16.52;;;11.13;;
25988;SDS011;13778;48.236;9.894;2024-01-30T12:03:50;16.85;;;12.27;;
25988;SDS011;13778;48.236;9.894;2024-01-30T12:06:40;16.42;;;11.48;;
25988;SDS011;13778;48.236;9.894;2024-01-30T12:09:31;21.75;;;12.18;;
25988;SDS011;13778;48.236;9.894;2024-01-30T12:12:22;16.10;;;12.43;;
25988;SDS011;13778;48.236;9.894;2024-01-30T12:15:13;16.15;;;12.40;;
25988;SDS011;13778;48.236;9.894;2024-01-30T12:18:04;17.42;;;11.73;;
25988;SDS011;13778;48.236;9.894;2024-01-30T12:20:59;15.57;;;11.35;;
25988;SDS011;13778;48.236;9.894;2024-01-30T12:23:49;14.73;;;10.93;;
25988;SDS011;13778;48.236;9.894;2024-01-30T12:26:40;18.23;;;12.02;;
25988;SDS011;13778;48.236;9.894;2024-01-30T12:29:31;19.55;;;12.77;;
25988;SDS011;13778;48.236;9.894;2024-01-30T12:32:22;19.10;;;11.52;;
25988;SDS011;13778;48.236;9.894;2024-01-30T12:35:12;18.67;;;11.98;;
25988;SDS011;13778;48.236;9.894;2024-01-30T12:38:05;17.30;;;12.00;;
25988;SDS011;13778;48.236;9.894;2024-01-30T12:40:55;20.30;;;13.07;;
25988;SDS011;13778;48.236;9.894;2024-01-30T12:43:46;17.90;;;12.45;;
25988;SDS011;13778;48.236;9.894;2024-01-30T12:46:37;18.43;;;12.20;;
25988;SDS011;13778;48.236;9.894;2024-01-30T12:49:27;19.88;;;11.90;;
25988;SDS011;13778;48.236;9.894;2024-01-30T12:52:17;18.30;;;12.60;;
25988;SDS011;13778;48.236;9.894;2024-01-30T12:55:09;18.88;;;12.88;;
25988;SDS011;13778;48.236;9.894;2024-01-30T12:58:00;20.45;;;13.35;;
25988;SDS011;13778;48.236;9.894;2024-01-30T13:00:50;17.63;;;12.40;;
25988;SDS011;13778;48.236;9.894;2024-01-30T13:03:41;15.48;;;11.93;;
25988;SDS011;13778;48.236;9.894;2024-01-30T13:06:31;19.08;;;12.77;;
25988;SDS011;13778;48.236;9.894;2024-01-30T13:09:23;20.33;;;12.65;;
25988;SDS011;13778;48.236;9.894;2024-01-30T13:15:05;20.70;;;12.35;;
25988;SDS011;13778;48.236;9.894;2024-01-30T13:17:57;17.63;;;12.20;;
25988;SDS011;13778;48.236;9.894;2024-01-30T13:20:47;18.00;;;12.60;;
25988;SDS011;13778;48.236;9.894;2024-01-30T13:23:38;22.90;;;13.65;;
25988;SDS011;13778;48.236;9.894;2024-01-30T13:26:28;17.00;;;12.68;;
25988;SDS011;13778;48.236;9.894;2024-01-30T13:29:19;19.23;;;13.20;;
25988;SDS011;13778;48.236;9.894;2024-01-30T13:32:11;21.25;;;14.13;;
25988;SDS011;13778;48.236;9.894;2024-01-30T13:35:02;16.45;;;12.40;;
25988;SDS011;13778;48.236;9.894;2024-01-30T13:37:52;16.33;;;12.27;;
25988;SDS011;13778;48.236;9.894;2024-01-30T13:40:43;21.60;;;13.52;;
25988;SDS011;13778;48.236;9.894;2024-01-30T13:43:33;24.25;;;13.52;;
25988;SDS011;13778;48.236;9.894;2024-01-30T13:46:24;18.67;;;12.48;;
25988;SDS011;13778;48.236;9.894;2024-01-30T13:49:15;16.85;;;13.07;;
25988;SDS011;13778;48.236;9.894;2024-01-30T13:54:57;19.42;;;12.52;;
25988;SDS011;13778;48.236;9.894;2024-01-30T13:57:50;19.77;;;12.95;;
25988;SDS011;13778;48.236;9.894;2024-01-30T14:00:40;18.90;;;13.25;;
25988;SDS011;13778;48.236;9.894;2024-01-30T14:03:31;18.70;;;12.60;;
25988;SDS011;13778;48.236;9.894;2024-01-30T14:06:23;18.95;;;12.00;;
25988;SDS011;13778;48.236;9.894;2024-01-30T14:12:04;19.83;;;11.82;;
25988;SDS011;13778;48.236;9.894;2024-01-30T14:14:54;19.42;;;12.90;;
25988;SDS011;13778;48.236;9.894;2024-01-30T14:17:45;15.90;;;11.55;;
25988;SDS011;13778;48.236;9.894;2024-01-30T14:20:37;18.27;;;11.43;;
25988;SDS011;13778;48.236;9.894;2024-01-30T14:23:29;25.67;;;11.77;;
25988;SDS011;13778;48.236;9.894;2024-01-30T14:26:19;19.13;;;12.30;;
25988;SDS011;13778;48.236;9.894;2024-01-30T14:29:10;19.73;;;12.15;;
25988;SDS011;13778;48.236;9.894;2024-01-30T14:32:00;16.10;;;11.50;;
25988;SDS011;13778;48.236;9.894;2024-01-30T14:34:51;23.85;;;12.43;;
25988;SDS011;13778;48.236;9.894;2024-01-30T14:37:41;16.83;;;10.93;;
25988;SDS011;13778;48.236;9.894;2024-01-30T14:40:33;17.83;;;11.73;;
25988;SDS011;13778;48.236;9.894;2024-01-30T14:46:14;17.65;;;11.23;;
25988;SDS011;13778;48.236;9.894;2024-01-30T14:49:04;18.52;;;12.50;;
25988;SDS011;13778;48.236;9.894;2024-01-30T14:51:57;26.02;;;12.20;;
25988;SDS011;13778;48.236;9.894;2024-01-30T14:54:48;21.75;;;11.55;;
25988;SDS011;13778;48.236;9.894;2024-01-30T14:57:40;28.50;;;14.52;;
25988;SDS011;13778;48.236;9.894;2024-01-30T15:00:31;21.42;;;13.77;;
25988;SDS011;13778;48.236;9.894;2024-01-30T15:03:22;22.42;;;12.57;;
25988;SDS011;13778;48.236;9.894;2024-01-30T15:06:12;19.10;;;11.50;;
25988;SDS011;13778;48.236;9.894;2024-01-30T15:09:03;22.30;;;12.32;;
25988;SDS011;13778;48.236;9.894;2024-01-30T15:11:54;20.13;;;13.07;;
25988;SDS011;13778;48.236;9.894;2024-01-30T15:14:45;19.98;;;13.48;;
25988;SDS011;13778;48.236;9.894;2024-01-30T15:17:40;20.73;;;13.65;;
25988;SDS011;13778;48.236;9.894;2024-01-30T15:20:30;19.73;;;11.90;;
25988;SDS011;13778;48.236;9.894;2024-01-30T15:23:21;20.67;;;12.55;;
25988;SDS011;13778;48.236;9.894;2024-01-30T15:26:11;18.33;;;11.20;;
25988;SDS011;13778;48.236;9.894;2024-01-30T15:29:02;18.25;;;12.57;;
25988;SDS011;13778;48.236;9.894;2024-01-30T15:31:53;18.02;;;12.50;;
25988;SDS011;13778;48.236;9.894;2024-01-30T15:34:44;20.38;;;11.82;;
25988;SDS011;13778;48.236;9.894;2024-01-30T15:37:34;19.63;;;11.90;;
25988;SDS011;13778;48.236;9.894;2024-01-30T15:40:25;18.33;;;12.18;;
25988;SDS011;13778;48.236;9.894;2024-01-30T15:43:15;17.35;;;12.27;;
25988;SDS011;13778;48.236;9.894;2024-01-30T15:46:06;16.80;;;10.95;;
25988;SDS011;13778;48.236;9.894;2024-01-30T15:48:58;18.58;;;11.05;;
25988;SDS011;13778;48.236;9.894;2024-01-30T15:51:49;15.75;;;11.40;;
25988;SDS011;13778;48.236;9.894;2024-01-30T15:54:39;18.25;;;11.10;;
25988;SDS011;13778;48.236;9.894;2024-01-30T15:57:30;17.67;;;11.32;;
25988;SDS011;13778;48.236;9.894;2024-01-30T16:00:21;16.70;;;11.57;;
25988;SDS011;13778;48.236;9.894;2024-01-30T16:03:11;18.15;;;11.15;;
25988;SDS011;13778;48.236;9.894;2024-01-30T16:06:03;14.80;;;10.40;;
25988;SDS011;13778;48.236;9.894;2024-01-30T16:08:53;18.45;;;12.68;;
25988;SDS011;13778;48.236;9.894;2024-01-30T16:11:44;18.50;;;14.10;;
25988;SDS011;13778;48.236;9.894;2024-01-30T16:14:34;16.77;;;12.80;;
25988;SDS011;13778;48.236;9.894;2024-01-30T16:17:25;17.05;;;11.50;;
25988;SDS011;13778;48.236;9.894;2024-01-30T16:20:16;15.20;;;12.23;;
25988;SDS011;13778;48.236;9.894;2024-01-30T16:23:07;18.02;;;12.07;;
25988;SDS011;13778;48.236;9.894;2024-01-30T16:28:48;19.00;;;12.38;;
25988;SDS011;13778;48.236;9.894;2024-01-30T16:31:39;16.23;;;12.02;;
25988;SDS011;13778;48.236;9.894;2024-01-30T16:34:29;15.57;;;11.93;;
25988;SDS011;13778;48.236;9.894;2024-01-30T16:37:19;22.88;;;12.52;;
25988;SDS011;13778;48.236;9.894;2024-01-30T16:40:11;22.80;;;12.85;;
25988;SDS011;13778;48.236;9.894;2024-01-30T16:43:02;19.40;;;13.65;;
25988;SDS011;13778;48.236;9.894;2024-01-30T16:45:52;26.48;;;14.85;;
25988;SDS011;13778;48.236;9.894;2024-01-30T16:48:42;19.75;;;13.25;;
25988;SDS011;13778;48.236;9.894;2024-01-30T16:51:33;25.35;;;13.60;;
25988;SDS011;13778;48.236;9.894;2024-01-30T16:54:23;21.65;;;12.73;;
25988;SDS011;13778;48.236;9.894;2024-01-30T16:57:15;19.40;;;12.02;;
25988;SDS011;13778;48.236;9.894;2024-01-30T17:02:56;21.58;;;14.00;;
25988;SDS011;13778;48.236;9.894;2024-01-30T17:05:47;21.92;;;15.05;;
25988;SDS011;13778;48.236;9.894;2024-01-30T17:08:43;20.58;;;14.05;;
25988;SDS011;13778;48.236;9.894;2024-01-30T17:11:33;21.17;;;13.45;;
25988;SDS011;13778;48.236;9.894;2024-01-30T17:14:25;18.77;;;12.55;;
25988;SDS011;13778;48.236;9.894;2024-01-30T17:17:17;17.08;;;13.15;;
25988;SDS011;13778;48.236;9.894;2024-01-30T17:20:08;18.13;;;12.60;;
25988;SDS011;13778;48.236;9.894;2024-01-30T17:23:00;23.60;;;13.27;;
25988;SDS011;13778;48.236;9.894;2024-01-30T17:25:53;22.90;;;16.77;;
25988;SDS011;13778;48.236;9.894;2024-01-30T17:28:43;17.60;;;11.80;;
25988;SDS011;13778;48.236;9.894;2024-01-30T17:31:35;19.52;;;13.48;;